Terminal Aerodrome Forecast
Issued by NWS Cleveland, OH

Home | Current Version | Previous Version | Graphics & Text | Print | Product List | Glossary On
Versions: 1 2 3 4 5 6 7 8 9 10 11 12 13 14 15 16 17 18 19 20
000
FTUS41 KCLE 160500
TAFCAK
TAF
KCAK 160520Z 1606/1706 33003KT 3SM BR BKN003 OVC025
      TEMPO 1606/1609 1 1/2SM -RA BR SCT003 OVC025
     FM160900 32004KT 3SM BR SCT003 OVC012
      TEMPO 1609/1613 1SM BR OVC003
     FM161400 35005KT P6SM BKN012 OVC025
     FM161800 36006KT P6SM SCT012 BKN025
     FM162000 35008KT P6SM SCT035
     FM170100 31004KT P6SM SKC=

USA.gov is the U.S. government's official web portal to all federal, state and local government web resources and services.